Terminal Aerodrome Forecast
Issued by NWS Knoxville/Tri Cities, TN

Home | Current Version | Previous Version | Text Only | Print | Product List | Glossary On
Versions: 1 2 3 4 5 6 7 8 9 10 11 12 13 14 15 16 17 18 19 20 21 22 23 24 25 26 27 28 29 30 31 32 33 34
000
FTUS44 KMRX 270525
TAFTYS
TAF
KTYS 270525Z 2706/2806 23008KT P6SM SCT050 BKN250
     FM270800 24005KT 6SM BR OVC035
     FM271400 23006KT P6SM BKN040
     FM271800 24007KT P6SM BKN250
     FM280000 22005KT P6SM OVC250=

USA.gov is the U.S. government's official web portal to all federal, state and local government web resources and services.